sensor_id;sensor_type;location;lat;lon;timestamp;pressure;altitude;pressure_sealevel;temperature;humidity
69879;BME280;57161;43.136;24.706;2022-11-20T00:00:55;98579.00;;;9.87;77.35
69879;BME280;57161;43.136;24.706;2022-11-20T00:03:21;98603.38;;;9.87;78.29
69879;BME280;57161;43.136;24.706;2022-11-20T00:05:46;98583.66;;;9.85;78.56
69879;BME280;57161;43.136;24.706;2022-11-20T00:08:12;98597.25;;;9.88;78.77
69879;BME280;57161;43.136;24.706;2022-11-20T00:10:39;98588.88;;;9.88;79.11
69879;BME280;57161;43.136;24.706;2022-11-20T00:13:06;98570.28;;;9.91;79.06
69879;BME280;57161;43.136;24.706;2022-11-20T00:15:32;98568.22;;;9.91;79.32
69879;BME280;57161;43.136;24.706;2022-11-20T00:17:57;98571.41;;;9.96;79.09
69879;BME280;57161;43.136;24.706;2022-11-20T00:20:23;98570.84;;;10.05;78.92
69879;BME280;57161;43.136;24.706;2022-11-20T00:22:49;98559.69;;;9.97;79.12
69879;BME280;57161;43.136;24.706;2022-11-20T00:25:15;98567.50;;;10.06;79.02
69879;BME280;57161;43.136;24.706;2022-11-20T00:27:41;98573.47;;;10.03;78.99
69879;BME280;57161;43.136;24.706;2022-11-20T00:30:06;98581.66;;;10.08;78.43
69879;BME280;57161;43.136;24.706;2022-11-20T00:32:32;98577.00;;;10.03;78.07
69879;BME280;57161;43.136;24.706;2022-11-20T00:34:58;98563.19;;;9.90;78.29
69879;BME280;57161;43.136;24.706;2022-11-20T00:37:23;98571.22;;;10.01;78.16
69879;BME280;57161;43.136;24.706;2022-11-20T00:39:48;98566.59;;;9.96;78.32
69879;BME280;57161;43.136;24.706;2022-11-20T00:42:14;98571.19;;;9.86;78.30
69879;BME280;57161;43.136;24.706;2022-11-20T00:44:39;98580.13;;;9.84;78.40
69879;BME280;57161;43.136;24.706;2022-11-20T00:47:05;98579.31;;;9.61;79.05
69879;BME280;57161;43.136;24.706;2022-11-20T00:49:30;98579.25;;;9.46;79.49
69879;BME280;57161;43.136;24.706;2022-11-20T00:51:56;98542.19;;;9.30;79.92
69879;BME280;57161;43.136;24.706;2022-11-20T00:54:21;98561.38;;;9.41;80.16
69879;BME280;57161;43.136;24.706;2022-11-20T00:56:47;98544.31;;;9.45;79.54
69879;BME280;57161;43.136;24.706;2022-11-20T00:59:12;98571.28;;;9.57;78.94
69879;BME280;57161;43.136;24.706;2022-11-20T01:01:38;98570.22;;;9.60;79.08
69879;BME280;57161;43.136;24.706;2022-11-20T01:04:04;98573.16;;;9.55;79.52
69879;BME280;57161;43.136;24.706;2022-11-20T01:06:33;98563.47;;;9.48;79.51
69879;BME280;57161;43.136;24.706;2022-11-20T01:09:02;98555.25;;;9.43;79.81
69879;BME280;57161;43.136;24.706;2022-11-20T01:11:30;98547.63;;;9.43;80.04
69879;BME280;57161;43.136;24.706;2022-11-20T01:13:58;98552.88;;;9.54;79.81
69879;BME280;57161;43.136;24.706;2022-11-20T01:16:30;98558.84;;;9.58;79.77
69879;BME280;57161;43.136;24.706;2022-11-20T01:18:58;98573.94;;;9.63;79.16
69879;BME280;57161;43.136;24.706;2022-11-20T01:21:30;98565.38;;;9.69;79.00
69879;BME280;57161;43.136;24.706;2022-11-20T01:23:57;98565.94;;;9.67;79.10
69879;BME280;57161;43.136;24.706;2022-11-20T01:26:29;98551.22;;;9.59;79.35
69879;BME280;57161;43.136;24.706;2022-11-20T01:28:56;98558.31;;;9.68;78.62
69879;BME280;57161;43.136;24.706;2022-11-20T01:31:33;98528.88;;;9.44;79.09
69879;BME280;57161;43.136;24.706;2022-11-20T01:34:05;98555.72;;;9.62;79.19
69879;BME280;57161;43.136;24.706;2022-11-20T01:36:32;98544.19;;;9.66;79.07
69879;BME280;57161;43.136;24.706;2022-11-20T01:39:00;98561.28;;;9.62;79.07
69879;BME280;57161;43.136;24.706;2022-11-20T01:41:28;98558.44;;;9.54;79.19
69879;BME280;57161;43.136;24.706;2022-11-20T01:44:14;98557.69;;;9.46;79.42
69879;BME280;57161;43.136;24.706;2022-11-20T01:47:00;98557.69;;;9.46;78.43
69879;BME280;57161;43.136;24.706;2022-11-20T01:49:48;98553.19;;;9.36;78.35
69879;BME280;57161;43.136;24.706;2022-11-20T01:52:26;98548.66;;;9.25;78.54
69879;BME280;57161;43.136;24.706;2022-11-20T01:55:09;98545.84;;;9.17;79.28
69879;BME280;57161;43.136;24.706;2022-11-20T01:57:38;98530.75;;;9.05;79.37
69879;BME280;57161;43.136;24.706;2022-11-20T02:00:12;98534.56;;;8.94;80.10
69879;BME280;57161;43.136;24.706;2022-11-20T02:02:41;98505.31;;;8.72;80.52
69879;BME280;57161;43.136;24.706;2022-11-20T02:07:43;98503.97;;;8.66;81.17
69879;BME280;57161;43.136;24.706;2022-11-20T02:10:09;98486.38;;;8.71;81.11
69879;BME280;57161;43.136;24.706;2022-11-20T02:12:34;98492.22;;;8.88;80.32
69879;BME280;57161;43.136;24.706;2022-11-20T02:15:18;98486.28;;;8.92;80.21
69879;BME280;57161;43.136;24.706;2022-11-20T02:17:44;98467.53;;;8.92;80.23
69879;BME280;57161;43.136;24.706;2022-11-20T02:20:09;98449.13;;;8.89;80.20
69879;BME280;57161;43.136;24.706;2022-11-20T02:22:41;98452.72;;;9.05;80.61
69879;BME280;57161;43.136;24.706;2022-11-20T02:25:11;98459.63;;;9.12;81.15
69879;BME280;57161;43.136;24.706;2022-11-20T02:27:37;98443.34;;;8.80;80.92
69879;BME280;57161;43.136;24.706;2022-11-20T02:30:04;98455.56;;;8.77;81.62
69879;BME280;57161;43.136;24.706;2022-11-20T02:32:37;98446.66;;;8.78;81.79
69879;BME280;57161;43.136;24.706;2022-11-20T02:37:44;98412.47;;;8.70;82.12
69879;BME280;57161;43.136;24.706;2022-11-20T02:40:12;98422.94;;;8.85;82.39
69879;BME280;57161;43.136;24.706;2022-11-20T02:42:37;98423.53;;;8.98;81.89
69879;BME280;57161;43.136;24.706;2022-11-20T02:45:04;98429.13;;;9.06;81.26
69879;BME280;57161;43.136;24.706;2022-11-20T02:47:30;98422.28;;;9.15;81.05
69879;BME280;57161;43.136;24.706;2022-11-20T02:49:55;98436.81;;;9.21;80.87
69879;BME280;57161;43.136;24.706;2022-11-20T02:52:21;98437.53;;;9.21;80.81
69879;BME280;57161;43.136;24.706;2022-11-20T02:54:46;98431.59;;;9.25;81.06
69879;BME280;57161;43.136;24.706;2022-11-20T02:57:12;98422.72;;;9.34;80.69
69879;BME280;57161;43.136;24.706;2022-11-20T02:59:37;98428.66;;;9.30;80.35
69879;BME280;57161;43.136;24.706;2022-11-20T03:02:03;98437.72;;;9.23;80.72
69879;BME280;57161;43.136;24.706;2022-11-20T03:04:28;98433.50;;;9.30;80.38
69879;BME280;57161;43.136;24.706;2022-11-20T03:06:54;98408.19;;;9.20;80.35
69879;BME280;57161;43.136;24.706;2022-11-20T03:09:20;98415.25;;;9.14;80.70
69879;BME280;57161;43.136;24.706;2022-11-20T03:11:45;98434.19;;;9.23;80.71
69879;BME280;57161;43.136;24.706;2022-11-20T03:14:10;98432.53;;;9.20;80.38
69879;BME280;57161;43.136;24.706;2022-11-20T03:16:36;98413.53;;;9.11;80.46
69879;BME280;57161;43.136;24.706;2022-11-20T03:19:01;98440.50;;;9.23;80.63
69879;BME280;57161;43.136;24.706;2022-11-20T03:21:27;98436.41;;;9.17;80.40
69879;BME280;57161;43.136;24.706;2022-11-20T03:23:53;98445.34;;;9.23;80.09
69879;BME280;57161;43.136;24.706;2022-11-20T03:26:24;98462.25;;;9.17;80.45
69879;BME280;57161;43.136;24.706;2022-11-20T03:28:55;98475.56;;;9.03;81.00
69879;BME280;57161;43.136;24.706;2022-11-20T03:31:23;98498.72;;;8.91;81.05
69879;BME280;57161;43.136;24.706;2022-11-20T03:33:50;98512.16;;;8.71;81.74
69879;BME280;57161;43.136;24.706;2022-11-20T03:36:19;98542.13;;;8.79;82.33
69879;BME280;57161;43.136;24.706;2022-11-20T03:38:45;98556.56;;;8.77;82.67
69879;BME280;57161;43.136;24.706;2022-11-20T03:41:13;98566.69;;;8.88;82.78
69879;BME280;57161;43.136;24.706;2022-11-20T03:43:39;98572.34;;;9.03;82.82
69879;BME280;57161;43.136;24.706;2022-11-20T03:46:05;98600.41;;;9.05;82.82
69879;BME280;57161;43.136;24.706;2022-11-20T03:48:31;98590.75;;;9.06;82.61
69879;BME280;57161;43.136;24.706;2022-11-20T03:51:30;98608.97;;;9.07;82.65
69879;BME280;57161;43.136;24.706;2022-11-20T03:53:58;98577.78;;;8.80;82.71
69879;BME280;57161;43.136;24.706;2022-11-20T03:56:26;98630.38;;;9.12;82.91
69879;BME280;57161;43.136;24.706;2022-11-20T03:58:52;98639.50;;;9.20;82.88
69879;BME280;57161;43.136;24.706;2022-11-20T04:01:20;98645.06;;;9.13;82.79
69879;BME280;57161;43.136;24.706;2022-11-20T04:03:47;98645.09;;;9.20;82.66
69879;BME280;57161;43.136;24.706;2022-11-20T04:06:18;98627.31;;;9.31;82.58
69879;BME280;57161;43.136;24.706;2022-11-20T04:08:44;98619.19;;;9.41;83.94
69879;BME280;57161;43.136;24.706;2022-11-20T04:11:18;98631.88;;;9.49;84.04
69879;BME280;57161;43.136;24.706;2022-11-20T04:13:50;98636.09;;;9.43;84.30
69879;BME280;57161;43.136;24.706;2022-11-20T04:16:16;98633.66;;;9.39;84.19
69879;BME280;57161;43.136;24.706;2022-11-20T04:18:42;98644.97;;;9.33;84.50
69879;BME280;57161;43.136;24.706;2022-11-20T04:21:09;98670.09;;;9.41;84.71
69879;BME280;57161;43.136;24.706;2022-11-20T04:23:34;98655.47;;;9.48;84.71
69879;BME280;57161;43.136;24.706;2022-11-20T04:26:05;98657.94;;;9.59;84.41
69879;BME280;57161;43.136;24.706;2022-11-20T04:28:31;98674.88;;;9.61;84.56
69879;BME280;57161;43.136;24.706;2022-11-20T04:31:14;98679.00;;;9.68;83.75
69879;BME280;57161;43.136;24.706;2022-11-20T04:33:40;98693.56;;;9.82;83.57
69879;BME280;57161;43.136;24.706;2022-11-20T04:36:11;98710.34;;;9.89;83.34
69879;BME280;57161;43.136;24.706;2022-11-20T04:38:38;98690.25;;;9.91;83.05
69879;BME280;57161;43.136;24.706;2022-11-20T04:41:06;98682.88;;;10.01;82.72
69879;BME280;57161;43.136;24.706;2022-11-20T04:43:33;98673.19;;;10.02;82.60
69879;BME280;57161;43.136;24.706;2022-11-20T04:45:59;98662.94;;;9.97;82.63
69879;BME280;57161;43.136;24.706;2022-11-20T04:48:26;98670.22;;;10.08;82.47
69879;BME280;57161;43.136;24.706;2022-11-20T04:50:52;98680.25;;;9.96;82.85
69879;BME280;57161;43.136;24.706;2022-11-20T04:53:18;98688.44;;;9.93;83.17
69879;BME280;57161;43.136;24.706;2022-11-20T04:55:44;98694.19;;;9.96;83.14
69879;BME280;57161;43.136;24.706;2022-11-20T04:58:09;98651.09;;;9.68;82.96
69879;BME280;57161;43.136;24.706;2022-11-20T05:00:35;98674.50;;;10.01;82.68
69879;BME280;57161;43.136;24.706;2022-11-20T05:03:00;98681.00;;;10.04;82.65
69879;BME280;57161;43.136;24.706;2022-11-20T05:05:26;98674.88;;;10.05;82.58
69879;BME280;57161;43.136;24.706;2022-11-20T05:07:51;98670.03;;;10.06;82.45
69879;BME280;57161;43.136;24.706;2022-11-20T05:10:17;98655.69;;;10.02;82.23
69879;BME280;57161;43.136;24.706;2022-11-20T05:12:42;98686.44;;;10.09;82.03
69879;BME280;57161;43.136;24.706;2022-11-20T05:15:08;98684.72;;;9.99;82.42
69879;BME280;57161;43.136;24.706;2022-11-20T05:17:34;98710.25;;;10.10;82.52
69879;BME280;57161;43.136;24.706;2022-11-20T05:19:59;98709.28;;;10.08;82.73
69879;BME280;57161;43.136;24.706;2022-11-20T05:22:25;98706.81;;;9.89;83.08
69879;BME280;57161;43.136;24.706;2022-11-20T05:24:50;98733.47;;;10.05;83.14
69879;BME280;57161;43.136;24.706;2022-11-20T05:27:16;98728.31;;;10.09;82.89
69879;BME280;57161;43.136;24.706;2022-11-20T05:29:41;98708.47;;;9.92;83.67
69879;BME280;57161;43.136;24.706;2022-11-20T05:32:07;98740.91;;;9.95;84.12
69879;BME280;57161;43.136;24.706;2022-11-20T05:34:35;98716.66;;;9.90;84.19
69879;BME280;57161;43.136;24.706;2022-11-20T05:37:00;98719.69;;;10.00;84.07
69879;BME280;57161;43.136;24.706;2022-11-20T05:39:26;98727.91;;;10.05;84.21
69879;BME280;57161;43.136;24.706;2022-11-20T05:41:51;98721.94;;;10.01;84.16
69879;BME280;57161;43.136;24.706;2022-11-20T05:44:37;98710.31;;;9.82;85.07
69879;BME280;57161;43.136;24.706;2022-11-20T05:47:02;98742.38;;;9.96;85.16
69879;BME280;57161;43.136;24.706;2022-11-20T05:49:28;98757.22;;;9.91;85.65
69879;BME280;57161;43.136;24.706;2022-11-20T05:51:53;98745.28;;;9.83;85.70
69879;BME280;57161;43.136;24.706;2022-11-20T05:54:18;98725.69;;;9.75;86.88
69879;BME280;57161;43.136;24.706;2022-11-20T05:56:44;98756.81;;;9.79;87.52
69879;BME280;57161;43.136;24.706;2022-11-20T05:59:10;98744.00;;;9.84;87.89
69879;BME280;57161;43.136;24.706;2022-11-20T06:01:35;98756.75;;;9.72;88.27
69879;BME280;57161;43.136;24.706;2022-11-20T06:04:01;98760.94;;;9.86;88.49
69879;BME280;57161;43.136;24.706;2022-11-20T06:06:27;98763.03;;;9.93;88.19
69879;BME280;57161;43.136;24.706;2022-11-20T06:08:52;98765.81;;;9.93;88.19
69879;BME280;57161;43.136;24.706;2022-11-20T06:11:18;98803.97;;;9.98;88.43
69879;BME280;57161;43.136;24.706;2022-11-20T06:13:44;98802.09;;;9.93;88.77
69879;BME280;57161;43.136;24.706;2022-11-20T06:16:12;98809.19;;;10.02;88.66
69879;BME280;57161;43.136;24.706;2022-11-20T06:18:39;98813.28;;;10.01;88.36
69879;BME280;57161;43.136;24.706;2022-11-20T06:21:07;98803.81;;;10.04;88.75
69879;BME280;57161;43.136;24.706;2022-11-20T06:23:34;98762.84;;;9.99;88.54
69879;BME280;57161;43.136;24.706;2022-11-20T06:26:06;98785.47;;;10.16;88.28
69879;BME280;57161;43.136;24.706;2022-11-20T06:28:31;98792.16;;;10.13;89.05
69879;BME280;57161;43.136;24.706;2022-11-20T06:30:57;98810.09;;;10.25;89.15
69879;BME280;57161;43.136;24.706;2022-11-20T06:33:23;98805.38;;;10.20;88.67
69879;BME280;57161;43.136;24.706;2022-11-20T06:35:49;98809.13;;;10.22;88.56
69879;BME280;57161;43.136;24.706;2022-11-20T06:38:15;98833.25;;;10.41;88.82
69879;BME280;57161;43.136;24.706;2022-11-20T06:40:41;98826.41;;;10.49;88.48
69879;BME280;57161;43.136;24.706;2022-11-20T06:43:08;98824.66;;;10.39;88.69
69879;BME280;57161;43.136;24.706;2022-11-20T06:45:33;98827.88;;;10.43;88.76
69879;BME280;57161;43.136;24.706;2022-11-20T06:47:59;98846.31;;;10.46;88.57
69879;BME280;57161;43.136;24.706;2022-11-20T06:50:24;98863.66;;;10.52;88.29
69879;BME280;57161;43.136;24.706;2022-11-20T06:52:49;98846.44;;;10.33;87.94
69879;BME280;57161;43.136;24.706;2022-11-20T06:55:15;98867.91;;;10.17;88.68
69879;BME280;57161;43.136;24.706;2022-11-20T06:57:40;98878.31;;;10.16;89.27
69879;BME280;57161;43.136;24.706;2022-11-20T07:00:06;98880.25;;;10.21;89.68
69879;BME280;57161;43.136;24.706;2022-11-20T07:02:32;98875.06;;;10.26;89.47
69879;BME280;57161;43.136;24.706;2022-11-20T07:04:57;98853.94;;;10.17;89.09
69879;BME280;57161;43.136;24.706;2022-11-20T07:07:23;98866.16;;;10.35;88.92
69879;BME280;57161;43.136;24.706;2022-11-20T07:09:48;98850.22;;;10.43;88.85
69879;BME280;57161;43.136;24.706;2022-11-20T07:12:17;98870.91;;;10.55;88.59
69879;BME280;57161;43.136;24.706;2022-11-20T07:14:42;98870.38;;;10.57;88.01
69879;BME280;57161;43.136;24.706;2022-11-20T07:17:08;98871.47;;;10.53;88.03
69879;BME280;57161;43.136;24.706;2022-11-20T07:19:33;98871.44;;;10.46;88.30
69879;BME280;57161;43.136;24.706;2022-11-20T07:21:59;98879.09;;;10.45;88.30
69879;BME280;57161;43.136;24.706;2022-11-20T07:24:24;98869.22;;;10.44;88.31
69879;BME280;57161;43.136;24.706;2022-11-20T07:26:49;98877.31;;;10.63;87.22
69879;BME280;57161;43.136;24.706;2022-11-20T07:29:15;98866.34;;;10.73;87.23
69879;BME280;57161;43.136;24.706;2022-11-20T07:31:44;98864.84;;;10.72;86.81
69879;BME280;57161;43.136;24.706;2022-11-20T07:34:10;98857.81;;;10.78;86.82
69879;BME280;57161;43.136;24.706;2022-11-20T07:36:35;98854.28;;;10.86;86.16
69879;BME280;57161;43.136;24.706;2022-11-20T07:39:01;98855.44;;;10.90;86.73
69879;BME280;57161;43.136;24.706;2022-11-20T07:41:26;98841.44;;;10.90;86.21
69879;BME280;57161;43.136;24.706;2022-11-20T07:43:53;98847.19;;;10.85;85.95
69879;BME280;57161;43.136;24.706;2022-11-20T07:46:18;98841.22;;;10.80;86.59
69879;BME280;57161;43.136;24.706;2022-11-20T07:48:44;98840.50;;;10.88;86.56
69879;BME280;57161;43.136;24.706;2022-11-20T07:51:10;98853.38;;;11.06;86.49
69879;BME280;57161;43.136;24.706;2022-11-20T07:53:35;98844.09;;;11.11;85.91
69879;BME280;57161;43.136;24.706;2022-11-20T07:56:01;98857.53;;;11.20;85.24
69879;BME280;57161;43.136;24.706;2022-11-20T07:58:29;98865.38;;;11.29;85.30
69879;BME280;57161;43.136;24.706;2022-11-20T08:00:55;98881.44;;;11.44;84.50
69879;BME280;57161;43.136;24.706;2022-11-20T08:03:20;98870.06;;;11.50;84.19
69879;BME280;57161;43.136;24.706;2022-11-20T08:05:46;98857.00;;;11.52;84.26
69879;BME280;57161;43.136;24.706;2022-11-20T08:08:11;98863.91;;;11.59;82.61
69879;BME280;57161;43.136;24.706;2022-11-20T08:10:37;98851.41;;;11.60;82.46
69879;BME280;57161;43.136;24.706;2022-11-20T08:13:02;98850.66;;;11.67;82.54
69879;BME280;57161;43.136;24.706;2022-11-20T08:15:50;98863.72;;;11.64;82.08
69879;BME280;57161;43.136;24.706;2022-11-20T08:18:16;98849.72;;;11.64;82.63
69879;BME280;57161;43.136;24.706;2022-11-20T08:20:42;98835.75;;;11.72;82.12
69879;BME280;57161;43.136;24.706;2022-11-20T08:23:08;98807.56;;;11.55;81.84
69879;BME280;57161;43.136;24.706;2022-11-20T08:25:35;98831.09;;;11.82;81.99
69879;BME280;57161;43.136;24.706;2022-11-20T08:28:02;98849.16;;;11.96;80.96
69879;BME280;57161;43.136;24.706;2022-11-20T08:30:28;98841.31;;;12.10;80.25
69879;BME280;57161;43.136;24.706;2022-11-20T08:32:54;98851.50;;;12.38;79.29
69879;BME280;57161;43.136;24.706;2022-11-20T08:35:21;98857.06;;;12.53;79.64
69879;BME280;57161;43.136;24.706;2022-11-20T08:37:47;98841.75;;;12.54;79.29
69879;BME280;57161;43.136;24.706;2022-11-20T08:40:14;98842.91;;;12.44;79.09
69879;BME280;57161;43.136;24.706;2022-11-20T08:42:50;98833.97;;;12.38;79.20
69879;BME280;57161;43.136;24.706;2022-11-20T08:45:17;98834.50;;;12.44;79.55
69879;BME280;57161;43.136;24.706;2022-11-20T08:47:44;98833.28;;;12.62;78.27
69879;BME280;57161;43.136;24.706;2022-11-20T08:50:11;98824.50;;;12.66;78.20
69879;BME280;57161;43.136;24.706;2022-11-20T08:52:37;98830.47;;;12.70;78.26
69879;BME280;57161;43.136;24.706;2022-11-20T08:55:03;98833.06;;;12.75;77.95
69879;BME280;57161;43.136;24.706;2022-11-20T08:57:33;98842.03;;;12.74;78.40
69879;BME280;57161;43.136;24.706;2022-11-20T08:59:59;98823.56;;;12.71;78.16
69879;BME280;57161;43.136;24.706;2022-11-20T09:02:25;98808.56;;;12.76;78.20
69879;BME280;57161;43.136;24.706;2022-11-20T09:04:50;98799.59;;;12.77;78.04
69879;BME280;57161;43.136;24.706;2022-11-20T09:07:16;98809.81;;;12.82;78.34
69879;BME280;57161;43.136;24.706;2022-11-20T09:09:41;98834.50;;;12.84;77.76
69879;BME280;57161;43.136;24.706;2022-11-20T09:12:07;98807.75;;;12.90;77.26
69879;BME280;57161;43.136;24.706;2022-11-20T09:14:32;98779.06;;;12.75;77.01
69879;BME280;57161;43.136;24.706;2022-11-20T09:16:59;98777.16;;;12.77;77.34
69879;BME280;57161;43.136;24.706;2022-11-20T09:19:24;98785.22;;;12.73;77.32
69879;BME280;57161;43.136;24.706;2022-11-20T09:21:50;98780.31;;;12.81;77.72
69879;BME280;57161;43.136;24.706;2022-11-20T09:24:16;98767.41;;;12.86;77.93
69879;BME280;57161;43.136;24.706;2022-11-20T09:26:41;98746.63;;;12.89;77.80
69879;BME280;57161;43.136;24.706;2022-11-20T09:29:07;98755.88;;;12.99;76.85
69879;BME280;57161;43.136;24.706;2022-11-20T09:31:32;98746.22;;;12.92;76.43
69879;BME280;57161;43.136;24.706;2022-11-20T09:33:58;98764.84;;;13.05;76.28
69879;BME280;57161;43.136;24.706;2022-11-20T09:36:23;98775.66;;;13.09;75.63
69879;BME280;57161;43.136;24.706;2022-11-20T09:38:49;98780.09;;;13.12;76.01
69879;BME280;57161;43.136;24.706;2022-11-20T09:47:03;98765.25;;;13.02;76.04
69879;BME280;57161;43.136;24.706;2022-11-20T09:55:03;98764.91;;;13.23;76.07
69879;BME280;57161;43.136;24.706;2022-11-20T09:57:38;98763.38;;;13.29;75.77
69879;BME280;57161;43.136;24.706;2022-11-20T10:00:10;98767.66;;;13.30;75.62
69879;BME280;57161;43.136;24.706;2022-11-20T10:05:31;98762.00;;;13.38;74.11
69879;BME280;57161;43.136;24.706;2022-11-20T10:09:22;98722.94;;;13.07;74.23
69879;BME280;57161;43.136;24.706;2022-11-20T10:11:41;98761.09;;;13.35;75.03
69879;BME280;57161;43.136;24.706;2022-11-20T10:19:41;98737.91;;;13.35;74.33
69879;BME280;57161;43.136;24.706;2022-11-20T10:22:18;98725.09;;;13.41;75.02
69879;BME280;57161;43.136;24.706;2022-11-20T10:27:49;98730.97;;;13.36;74.87
69879;BME280;57161;43.136;24.706;2022-11-20T10:30:19;98725.81;;;13.25;75.28
69879;BME280;57161;43.136;24.706;2022-11-20T10:32:52;98724.34;;;13.24;75.95
69879;BME280;57161;43.136;24.706;2022-11-20T10:35:27;98745.28;;;13.23;75.61
69879;BME280;57161;43.136;24.706;2022-11-20T10:38:02;98736.28;;;13.24;75.34
69879;BME280;57161;43.136;24.706;2022-11-20T10:40:46;98740.09;;;13.11;75.92
69879;BME280;57161;43.136;24.706;2022-11-20T10:43:17;98729.22;;;12.90;76.49
69879;BME280;57161;43.136;24.706;2022-11-20T10:45:49;98749.94;;;12.95;77.04
69879;BME280;57161;43.136;24.706;2022-11-20T10:56:20;98799.53;;;12.85;79.46
69879;BME280;57161;43.136;24.706;2022-11-20T11:01:49;98775.44;;;12.49;80.74
69879;BME280;57161;43.136;24.706;2022-11-20T11:04:46;98782.16;;;12.54;81.06
69879;BME280;57161;43.136;24.706;2022-11-20T11:09:47;98766.75;;;12.30;82.53
69879;BME280;57161;43.136;24.706;2022-11-20T11:12:13;98773.44;;;12.42;82.55
69879;BME280;57161;43.136;24.706;2022-11-20T11:14:47;98795.44;;;12.53;82.61
69879;BME280;57161;43.136;24.706;2022-11-20T11:22:46;98740.41;;;12.33;83.04
69879;BME280;57161;43.136;24.706;2022-11-20T11:25:29;98790.09;;;12.73;82.51
69879;BME280;57161;43.136;24.706;2022-11-20T11:28:00;98765.69;;;12.58;82.84
69879;BME280;57161;43.136;24.706;2022-11-20T11:30:27;98773.66;;;12.69;82.89
69879;BME280;57161;43.136;24.706;2022-11-20T11:33:11;98770.41;;;12.80;82.56
69879;BME280;57161;43.136;24.706;2022-11-20T11:35:45;98786.91;;;13.01;81.96
69879;BME280;57161;43.136;24.706;2022-11-20T11:38:27;98785.38;;;13.08;82.09
69879;BME280;57161;43.136;24.706;2022-11-20T11:40:53;98786.22;;;13.26;81.92
69879;BME280;57161;43.136;24.706;2022-11-20T11:43:25;98767.91;;;13.25;81.49
69879;BME280;57161;43.136;24.706;2022-11-20T11:46:33;98776.66;;;13.29;81.12
69879;BME280;57161;43.136;24.706;2022-11-20T11:49:11;98733.00;;;13.10;81.17
69879;BME280;57161;43.136;24.706;2022-11-20T11:52:18;98745.63;;;13.27;81.46
69879;BME280;57161;43.136;24.706;2022-11-20T11:54:53;98759.75;;;13.36;81.27
69879;BME280;57161;43.136;24.706;2022-11-20T11:57:40;98753.41;;;13.36;81.54
69879;BME280;57161;43.136;24.706;2022-11-20T12:00:15;98729.78;;;13.14;82.01
69879;BME280;57161;43.136;24.706;2022-11-20T12:05:34;98736.38;;;13.09;83.56
69879;BME280;57161;43.136;24.706;2022-11-20T12:08:27;98727.91;;;13.16;83.53
69879;BME280;57161;43.136;24.706;2022-11-20T12:13:50;98721.19;;;13.19;83.77
69879;BME280;57161;43.136;24.706;2022-11-20T12:16:19;98717.22;;;13.23;84.08
69879;BME280;57161;43.136;24.706;2022-11-20T12:18:51;98715.91;;;13.24;84.07
69879;BME280;57161;43.136;24.706;2022-11-20T12:24:24;98695.88;;;13.27;83.64
69879;BME280;57161;43.136;24.706;2022-11-20T12:40:00;98686.56;;;13.42;83.72
69879;BME280;57161;43.136;24.706;2022-11-20T12:42:45;98672.84;;;13.29;83.41
69879;BME280;57161;43.136;24.706;2022-11-20T12:45:46;98674.59;;;13.24;83.38
69879;BME280;57161;43.136;24.706;2022-11-20T12:48:36;98687.94;;;13.33;83.11
69879;BME280;57161;43.136;24.706;2022-11-20T12:51:21;98692.41;;;13.19;83.62
69879;BME280;57161;43.136;24.706;2022-11-20T12:57:03;98692.13;;;13.00;84.42
69879;BME280;57161;43.136;24.706;2022-11-20T13:08:00;98852.16;;;12.69;87.22
69879;BME280;57161;43.136;24.706;2022-11-20T13:10:38;98860.56;;;12.61;87.75
69879;BME280;57161;43.136;24.706;2022-11-20T13:18:16;98841.75;;;12.54;88.70
69879;BME280;57161;43.136;24.706;2022-11-20T13:20:44;98841.06;;;12.39;89.32
69879;BME280;57161;43.136;24.706;2022-11-20T13:23:11;98833.00;;;12.35;89.99
69879;BME280;57161;43.136;24.706;2022-11-20T13:25:40;98829.47;;;12.42;90.15
69879;BME280;57161;43.136;24.706;2022-11-20T13:30:35;98845.81;;;12.61;89.30
69879;BME280;57161;43.136;24.706;2022-11-20T13:33:30;98842.44;;;12.62;90.16
69879;BME280;57161;43.136;24.706;2022-11-20T13:35:59;98862.97;;;12.65;90.64
69879;BME280;57161;43.136;24.706;2022-11-20T13:38:25;98856.97;;;12.69;90.26
69879;BME280;57161;43.136;24.706;2022-11-20T13:40:52;98833.97;;;12.78;90.28
69879;BME280;57161;43.136;24.706;2022-11-20T13:45:56;98798.69;;;12.67;90.93
69879;BME280;57161;43.136;24.706;2022-11-20T13:48:25;98776.97;;;12.43;91.47
69879;BME280;57161;43.136;24.706;2022-11-20T13:51:05;98788.28;;;12.60;91.56
69879;BME280;57161;43.136;24.706;2022-11-20T14:03:38;98760.50;;;12.47;92.12
69879;BME280;57161;43.136;24.706;2022-11-20T14:06:11;98763.19;;;12.37;92.38
69879;BME280;57161;43.136;24.706;2022-11-20T14:08:47;98785.31;;;12.50;92.43
69879;BME280;57161;43.136;24.706;2022-11-20T14:14:17;98777.94;;;12.38;93.32
69879;BME280;57161;43.136;24.706;2022-11-20T14:16:44;98777.16;;;12.45;93.48
69879;BME280;57161;43.136;24.706;2022-11-20T14:21:52;98765.53;;;12.48;93.50
69879;BME280;57161;43.136;24.706;2022-11-20T14:24:24;98761.22;;;12.55;93.28
69879;BME280;57161;43.136;24.706;2022-11-20T14:26:51;98698.78;;;12.29;92.96
69879;BME280;57161;43.136;24.706;2022-11-20T14:29:19;98744.13;;;12.68;92.38
69879;BME280;57161;43.136;24.706;2022-11-20T14:31:47;98760.03;;;12.66;92.32
69879;BME280;57161;43.136;24.706;2022-11-20T14:34:30;98751.44;;;12.63;91.86
69879;BME280;57161;43.136;24.706;2022-11-20T14:36:59;98767.28;;;12.69;91.78
69879;BME280;57161;43.136;24.706;2022-11-20T14:39:30;98762.50;;;12.61;92.19
69879;BME280;57161;43.136;24.706;2022-11-20T14:41:57;98742.44;;;12.40;93.19
69879;BME280;57161;43.136;24.706;2022-11-20T14:44:28;98753.25;;;12.44;93.95
69879;BME280;57161;43.136;24.706;2022-11-20T14:46:57;98751.19;;;12.44;93.62
69879;BME280;57161;43.136;24.706;2022-11-20T14:49:24;98700.50;;;12.25;94.18
69879;BME280;57161;43.136;24.706;2022-11-20T14:52:20;98706.75;;;12.41;94.43